Silvero — SDAK — position and weather

sailwx.info

Track history (hours):
 
Tides and Currents Weather Stations Pressure Air Temp Water Temp Dewpoint Dewpoint Depression Visibility Wind Speed Wind Dir Waves Ship Positions

Silvero

Last reported at 2017-Jun-23 05:00 UTC. Time now 2017-Jun-23 05:16 UTC.
Position N 59°24' E 018°21'.

Length 22 m.

Type: Passenger vessel. MMSI: 265568520.

Date/timePositionNaut miles runAvg speedWind from/ knotsBaromVisibWave heightAir tempDewpointWater temp
2017-Jun-23 05:00N 59°24' E 018°21'0 0.0
2017-Jun-23 04:30N 59°24' E 018°21'0 0.0
2017-Jun-23 04:00N 59°24' E 018°21'0 0.0
2017-Jun-23 03:30N 59°24' E 018°21'0 0.0
2017-Jun-23 03:00N 59°24' E 018°21'0 0.0
2017-Jun-23 02:30N 59°24' E 018°21'0 0.0
2017-Jun-23 02:00N 59°24' E 018°21'0 0.0
2017-Jun-23 01:30N 59°24' E 018°21'0 0.0
2017-Jun-23 01:00N 59°24' E 018°21'0 0.0
2017-Jun-23 00:30N 59°24' E 018°21'0 0.0
2017-Jun-23 00:00N 59°24' E 018°21'0 0.0
2017-Jun-22 23:30N 59°24' E 018°21'0 0.0
2017-Jun-22 22:59N 59°24' E 018°21'0 0.0
2017-Jun-22 22:30N 59°24' E 018°21'0 0.0
2017-Jun-22 22:00N 59°24' E 018°21'0 0.0
2017-Jun-22 21:30N 59°24' E 018°21'0 0.0
2017-Jun-22 21:00N 59°24' E 018°21'0 0.0
2017-Jun-22 20:30N 59°24' E 018°21'0 0.0
2017-Jun-22 20:00N 59°24' E 018°21'0 0.0
2017-Jun-22 19:30N 59°24' E 018°21'0 0.0
2017-Jun-22 18:59N 59°24' E 018°21'0 0.0
2017-Jun-22 18:30N 59°24' E 018°21'0 0.0
2017-Jun-22 18:00N 59°24' E 018°21'3 5.0
2017-Jun-22 17:30N 59°23' E 018°25'1 1.0
2017-Jun-22 16:58N 59°23' E 018°26'2 3.9
2017-Jun-22 16:30N 59°24' E 018°23'1 1.5
2017-Jun-22 16:00N 59°23' E 018°24'1 2.1
2017-Jun-22 15:20N 59°22' E 018°24'2 7.0
2017-Jun-22 15:00N 59°22' E 018°19'1 2.0
2017-Jun-22 14:30N 59°23' E 018°19'4 3.8
2017-Jun-22 13:27N 59°22' E 018°27'1 1.0
2017-Jun-22 12:50N 59°23' E 018°26'2 6.4
2017-Jun-22 12:31N 59°24' E 018°23'1 1.4
2017-Jun-22 12:00N 59°23' E 018°24'2 3.4
2017-Jun-22 11:30N 59°25' E 018°22'1 2.1
2017-Jun-22 11:00N 59°24' E 018°21'0 0.0
2017-Jun-22 10:30N 59°24' E 018°21'0 0.0
2017-Jun-22 10:00N 59°24' E 018°21'0 0.0
2017-Jun-22 09:30N 59°24' E 018°21'0 0.0
2017-Jun-22 09:00N 59°24' E 018°21'0 0.0
2017-Jun-22 08:30N 59°24' E 018°21'0 0.0
2017-Jun-22 08:00N 59°24' E 018°21'1 2.9
2017-Jun-22 07:30N 59°23' E 018°24'2 3.1
2017-Jun-22 06:54N 59°22' E 018°26'2 4.8
2017-Jun-22 06:30N 59°23' E 018°24'1 2.9
2017-Jun-22 06:01N 59°24' E 018°21'2 3.6
2017-Jun-22 05:30N 59°22' E 018°22'2 4.2
2017-Jun-22 04:58N 59°23' E 018°26'3 6.5
2017-Jun-22 04:30N 59°25' E 018°22'3 5.9
2017-Jun-22 03:58N 59°26' E 018°28'2 4.6
2017-Jun-22 03:31N 59°26' E 018°24'3 5.1
2017-Jun-22 03:00N 59°24' E 018°21'0 0.0
2017-Jun-22 02:30N 59°24' E 018°21'0 0.0
2017-Jun-22 02:00N 59°24' E 018°21'0 0.0
2017-Jun-22 01:30N 59°24' E 018°21'0 0.0
2017-Jun-22 01:00N 59°24' E 018°21'0 0.0
2017-Jun-22 00:30N 59°24' E 018°21'0 0.0
2017-Jun-22 00:00N 59°24' E 018°21'0 0.0
2017-Jun-21 23:30N 59°24' E 018°21'0 0.0
2017-Jun-21 23:00N 59°24' E 018°21'0 0.0
2017-Jun-21 22:30N 59°24' E 018°21'0 0.0
2017-Jun-21 22:00N 59°24' E 018°21'0 0.0
2017-Jun-21 21:30N 59°24' E 018°21'0 0.0
2017-Jun-21 21:00N 59°24' E 018°21'0 0.0
2017-Jun-21 20:30N 59°24' E 018°21'0 0.0
2017-Jun-21 20:00N 59°24' E 018°21'0 0.0
2017-Jun-21 19:30N 59°24' E 018°21'0 0.0
2017-Jun-21 19:00N 59°24' E 018°21'0 0.0
2017-Jun-21 18:30N 59°24' E 018°21'0 0.0
2017-Jun-21 18:00N 59°24' E 018°21'2 3.3
2017-Jun-21 17:29N 59°23' E 018°24'1 1.4
2017-Jun-21 16:41N 59°23' E 018°26'1 4.8
2017-Jun-21 16:30N 59°23' E 018°25'2 4.6
2017-Jun-21 16:00N 59°24' E 018°21'3 6.7
2017-Jun-21 15:30N 59°22' E 018°27'3 6.1
2017-Jun-21 15:00N 59°22' E 018°21'2 4.4
2017-Jun-21 14:30N 59°22' E 018°16'5 4.8
2017-Jun-21 13:30N 59°23' E 018°26'1 1.6
2017-Jun-21 13:00N 59°22' E 018°26'2 4.9
2017-Jun-21 12:30N 59°24' E 018°23'0 1.0
2017-Jun-21 12:00N 59°23' E 018°24'2 3.6
2017-Jun-21 11:29N 59°25' E 018°22'1 2.7
2017-Jun-21 11:00N 59°24' E 018°21'0 0.0
2017-Jun-21 10:30N 59°24' E 018°21'0 0.0
2017-Jun-21 10:00N 59°24' E 018°21'0 0.0
2017-Jun-21 09:30N 59°24' E 018°21'0 0.0
2017-Jun-21 09:00N 59°24' E 018°21'0 0.0
2017-Jun-21 08:30N 59°24' E 018°21'0 0.0
2017-Jun-21 08:01N 59°24' E 018°21'2 3.0
2017-Jun-21 07:30N 59°23' E 018°24'2 2.8
2017-Jun-21 06:47N 59°22' E 018°27'2 7.5
2017-Jun-21 06:30N 59°23' E 018°24'1 2.7
2017-Jun-21 06:00N 59°24' E 018°21'2 3.4
2017-Jun-21 05:30N 59°22' E 018°22'2 3.2
2017-Jun-21 04:56N 59°23' E 018°25'3 5.9
2017-Jun-21 04:30N 59°24' E 018°21'0 0.0
2017-Jun-21 04:00N 59°24' E 018°21'0 0.0
2017-Jun-21 03:30N 59°24' E 018°21'0 0.0
2017-Jun-21 03:00N 59°24' E 018°21'0 0.0
2017-Jun-21 02:30N 59°24' E 018°21'0 0.0
2017-Jun-21 02:00N 59°24' E 018°21'0 0.0
2017-Jun-21 01:30N 59°24' E 018°21'0 0.0
2017-Jun-21 01:00N 59°24' E 018°21'0 0.0
2017-Jun-21 00:30N 59°24' E 018°21'0 0.0
2017-Jun-21 00:00N 59°24' E 018°21'0 0.0
2017-Jun-20 23:31N 59°24' E 018°21'0 0.0
2017-Jun-20 23:00N 59°24' E 018°21'0 0.0
2017-Jun-20 22:30N 59°24' E 018°21'0 0.0
2017-Jun-20 22:00N 59°24' E 018°21'0 0.0
2017-Jun-20 21:30N 59°24' E 018°21'0 0.0
2017-Jun-20 21:00N 59°24' E 018°21'0 0.0
2017-Jun-20 20:30N 59°24' E 018°21'0 0.0
2017-Jun-20 20:00N 59°24' E 018°21'0 0.0
2017-Jun-20 19:30N 59°24' E 018°21'0 0.0
2017-Jun-20 19:00N 59°24' E 018°21'0 0.0
2017-Jun-20 18:30N 59°24' E 018°21'0 0.0
2017-Jun-20 17:59N 59°24' E 018°21'2 3.5
2017-Jun-20 17:29N 59°23' E 018°24'1 2.2
2017-Jun-20 16:48N 59°22' E 018°26'1 3.0
2017-Jun-20 16:27N 59°23' E 018°26'3 6.1
2017-Jun-20 16:00N 59°24' E 018°21'3 6.1
2017-Jun-20 15:27N 59°22' E 018°27'3 5.9
2017-Jun-20 15:00N 59°22' E 018°22'1 1.4
2017-Jun-20 14:00N 59°24' E 018°23'2 3.3
2017-Jun-20 13:30N 59°23' E 018°26'1 1.8
2017-Jun-20 12:58N 59°22' E 018°27'3 5.8
2017-Jun-20 12:30N 59°24' E 018°23'1 1.3
2017-Jun-20 12:00N 59°23' E 018°24'2 4.3
2017-Jun-20 11:30N 59°25' E 018°22'1 2.5
2017-Jun-20 11:00N 59°24' E 018°21'0 0.0
2017-Jun-20 10:29N 59°24' E 018°21'1 1.7
2017-Jun-20 10:00N 59°24' E 018°23'1 1.7
2017-Jun-20 09:30N 59°24' E 018°21'0 0.9
2017-Jun-20 09:00N 59°24' E 018°22'0 0.0
2017-Jun-20 08:30N 59°24' E 018°22'0 0.9
2017-Jun-20 08:00N 59°24' E 018°21'1 1.7
2017-Jun-20 07:30N 59°24' E 018°23'3 4.4
2017-Jun-20 06:54N 59°22' E 018°26'2 5.7
2017-Jun-20 06:30N 59°23' E 018°24'1 2.7
2017-Jun-20 06:00N 59°24' E 018°21'2 3.4
2017-Jun-20 05:31N 59°22' E 018°22'2 4.1
2017-Jun-20 04:59N 59°23' E 018°26'3 6.1
2017-Jun-20 04:31N 59°24' E 018°21'0 0.0
2017-Jun-20 04:00N 59°24' E 018°21'0 0.0
2017-Jun-20 03:30N 59°24' E 018°21'0 0.0
2017-Jun-20 03:00N 59°24' E 018°21'0 0.0
2017-Jun-20 02:30N 59°24' E 018°21'0 0.0
2017-Jun-20 02:00N 59°24' E 018°21'0 0.0
2017-Jun-20 01:30N 59°24' E 018°21'0 0.0
2017-Jun-20 01:00N 59°24' E 018°21'0 0.0
2017-Jun-20 00:30N 59°24' E 018°21'0 0.0
2017-Jun-20 00:00N 59°24' E 018°21'0 0.0
2017-Jun-19 23:30N 59°24' E 018°21'0 0.0
2017-Jun-19 23:00N 59°24' E 018°21'0 0.0
2017-Jun-19 22:30N 59°24' E 018°21'0 0.0
2017-Jun-19 22:00N 59°24' E 018°21'0 0.0
2017-Jun-19 21:30N 59°24' E 018°21'0 0.0
2017-Jun-19 21:00N 59°24' E 018°21'0 0.0
2017-Jun-19 20:30N 59°24' E 018°21'0 0.0
2017-Jun-19 20:00N 59°24' E 018°21'0 0.0
2017-Jun-19 19:30N 59°24' E 018°21'0 0.0
2017-Jun-19 19:00N 59°24' E 018°21'0 0.0
2017-Jun-19 18:30N 59°24' E 018°21'0 0.0
2017-Jun-19 18:00N 59°24' E 018°21'1 1.7
2017-Jun-19 17:30N 59°24' E 018°23'2 2.1
2017-Jun-19 16:35N 59°23' E 018°26'0 4.0
2017-Jun-19 16:30N 59°23' E 018°26'2 4.8
2017-Jun-19 16:00N 59°24' E 018°21'3 6.4
2017-Jun-19 15:29N 59°22' E 018°26'4 7.9
2017-Jun-19 15:00N 59°22' E 018°19'2 4.8
2017-Jun-19 14:30N 59°24' E 018°21'3 3.0
2017-Jun-19 13:29N 59°22' E 018°26'2 2.3
2017-Jun-19 12:46N 59°23' E 018°24'1 3.6
2017-Jun-19 12:31N 59°24' E 018°23'1 2.9
2017-Jun-19 12:00N 59°23' E 018°25'2 5.1
2017-Jun-19 11:30N 59°25' E 018°22'1 2.2
2017-Jun-19 11:00N 59°24' E 018°21'0 0.0
2017-Jun-19 10:29N 59°24' E 018°21'0 0.0
2017-Jun-19 10:00N 59°24' E 018°21'0 0.0
2017-Jun-19 09:30N 59°24' E 018°21'0 0.0
2017-Jun-19 09:00N 59°24' E 018°21'0 0.0
2017-Jun-19 08:30N 59°24' E 018°21'0 0.0
2017-Jun-19 08:00N 59°24' E 018°21'1 2.0
2017-Jun-19 07:30N 59°24' E 018°23'2 3.6
2017-Jun-19 06:52N 59°22' E 018°26'2 6.1
2017-Jun-19 06:30N 59°24' E 018°23'1 2.2
2017-Jun-19 06:00N 59°24' E 018°21'2 3.3
2017-Jun-19 05:31N 59°22' E 018°22'2 4.1
2017-Jun-19 04:59N 59°23' E 018°26'3 5.8
2017-Jun-19 04:31N 59°24' E 018°21'0 0.0
2017-Jun-19 04:00N 59°24' E 018°21'0 0.0
2017-Jun-19 03:30N 59°24' E 018°21'0 0.0
2017-Jun-19 03:00N 59°24' E 018°21'0 0.0
2017-Jun-19 02:30N 59°24' E 018°21'0 0.0
2017-Jun-19 02:00N 59°24' E 018°21'0 0.0
2017-Jun-19 01:30N 59°24' E 018°21'0 0.0
2017-Jun-19 01:00N 59°24' E 018°21'0 0.0
2017-Jun-19 00:30N 59°24' E 018°21'0 0.0
2017-Jun-19 00:00N 59°24' E 018°21'0 0.0
2017-Jun-18 23:30N 59°24' E 018°21'0 0.0
2017-Jun-18 23:00N 59°24' E 018°21'0 0.0
2017-Jun-18 22:30N 59°24' E 018°21'0 0.0
2017-Jun-18 22:00N 59°24' E 018°21'0 0.0
2017-Jun-18 21:30N 59°24' E 018°21'0 0.0
2017-Jun-18 21:01N 59°24' E 018°21'0 0.0
2017-Jun-18 20:30N 59°24' E 018°21'0 0.0
2017-Jun-18 20:01N 59°24' E 018°21'0 0.0
2017-Jun-18 19:31N 59°24' E 018°21'0 0.0
2017-Jun-18 19:00N 59°24' E 018°21'0 0.0
2017-Jun-18 18:30N 59°24' E 018°21'0 0.1
2017-Jun-18 18:00N 59°24' E 018°21'2 4.5
2017-Jun-18 17:30N 59°23' E 018°25'1 1.9
2017-Jun-18 16:53N 59°22' E 018°26'2 6.3
2017-Jun-18 16:30N 59°24' E 018°23'1 1.8
2017-Jun-18 16:00N 59°24' E 018°21'0 0.0
2017-Jun-18 15:30N 59°24' E 018°21'0 0.0
2017-Jun-18 15:00N 59°24' E 018°21'0 0.0
2017-Jun-18 14:00N 59°24' E 018°21'2 4.7
2017-Jun-18 13:29N 59°23' E 018°26'1 2.0
2017-Jun-18 12:58N 59°22' E 018°26'3 7.0
2017-Jun-18 12:30N 59°24' E 018°21'0 0.0
2017-Jun-18 12:00N 59°24' E 018°21'0 0.7
2017-Jun-18 11:30N 59°24' E 018°21'1 2.5
2017-Jun-18 11:00N 59°24' E 018°23'1 1.2
2017-Jun-18 10:30N 59°24' E 018°22'0 0.9
2017-Jun-18 10:00N 59°24' E 018°21'2 4.6
2017-Jun-18 09:29N 59°23' E 018°26'1 2.0
2017-Jun-18 08:54N 59°22' E 018°26'2 4.8
2017-Jun-18 08:30N 59°23' E 018°24'2 3.4
2017-Jun-18 08:00N 59°25' E 018°21'1 1.1
2017-Jun-18 07:30N 59°24' E 018°21'0 0.0
2017-Jun-18 07:00N 59°24' E 018°21'1 2.0
2017-Jun-18 06:30N 59°24' E 018°23'1 2.0
2017-Jun-18 06:00N 59°24' E 018°21'0 0.0
2017-Jun-18 05:30N 59°24' E 018°21'0 0.0
2017-Jun-18 05:00N 59°24' E 018°21'0 0.0
2017-Jun-18 04:30N 59°24' E 018°21'0 0.0
2017-Jun-18 04:00N 59°24' E 018°21'0 0.0
2017-Jun-18 03:30N 59°24' E 018°21'0 0.0
2017-Jun-18 03:00N 59°24' E 018°21'0 0.0
2017-Jun-18 02:31N 59°24' E 018°21'0 0.0
2017-Jun-18 02:00N 59°24' E 018°21'0 0.0
2017-Jun-18 01:30N 59°24' E 018°21'0 0.0
2017-Jun-18 01:00N 59°24' E 018°21'0 0.0
2017-Jun-18 00:30N 59°24' E 018°21'0 0.0
2017-Jun-18 00:00N 59°24' E 018°21'0 0.0
2017-Jun-17 23:30N 59°24' E 018°21'0 0.0
2017-Jun-17 23:00N 59°24' E 018°21'0 0.0
2017-Jun-17 22:30N 59°24' E 018°21'0 0.0
2017-Jun-17 22:00N 59°24' E 018°21'0 0.0
2017-Jun-17 21:30N 59°24' E 018°21'0 0.0
2017-Jun-17 21:00N 59°24' E 018°21'0 0.0
2017-Jun-17 20:30N 59°24' E 018°21'0 0.0
2017-Jun-17 20:00N 59°24' E 018°21'0 0.0
2017-Jun-17 19:30N 59°24' E 018°21'0 0.0
2017-Jun-17 19:00N 59°24' E 018°21'0 0.0
2017-Jun-17 18:30N 59°24' E 018°21'0 0.0
2017-Jun-17 18:00N 59°24' E 018°21'0 0.0
2017-Jun-17 17:30N 59°24' E 018°21'0 0.0
2017-Jun-17 17:00N 59°24' E 018°21'1 1.0
2017-Jun-17 16:30N 59°25' E 018°21'1 1.1
2017-Jun-17 16:00N 59°24' E 018°21'1 1.7
2017-Jun-17 15:30N 59°24' E 018°23'1 0.5
2017-Jun-17 14:00N 59°24' E 018°21'1 1.5
2017-Jun-17 13:30N 59°25' E 018°22'1 1.6
2017-Jun-17 13:00N 59°24' E 018°21'0 0.0
2017-Jun-17 12:30N 59°24' E 018°21'0 0.0
2017-Jun-17 12:00N 59°24' E 018°21'0 0.0
2017-Jun-17 11:30N 59°24' E 018°21'0 0.0
2017-Jun-17 11:00N 59°24' E 018°21'0 0.0
2017-Jun-17 10:30N 59°24' E 018°21'4 8.0
2017-Jun-17 09:59N 59°27' E 018°27'1 2.0
2017-Jun-17 09:30N 59°27' E 018°29'4 8.2
2017-Jun-17 09:00N 59°25' E 018°22'1 1.9
2017-Jun-17 08:30N 59°24' E 018°21'2 3.7
2017-Jun-17 08:00N 59°23' E 018°25'1 1.1
2017-Jun-17 07:29N 59°23' E 018°24'2 3.5
2017-Jun-17 07:00N 59°21' E 018°25'2 4.0
2017-Jun-17 06:29N 59°23' E 018°23'0 0.7
2017-Jun-17 05:58N 59°24' E 018°23'1 2.1
2017-Jun-17 05:30N 59°24' E 018°21'0 0.0
2017-Jun-17 05:00N 59°24' E 018°21'0 0.0
2017-Jun-17 04:30N 59°24' E 018°21'0 0.0
2017-Jun-17 04:00N 59°24' E 018°21'0 0.0
2017-Jun-17 03:30N 59°24' E 018°21'0 0.0
2017-Jun-17 03:00N 59°24' E 018°21'0 0.0
2017-Jun-17 02:30N 59°24' E 018°21'0 0.0
2017-Jun-17 02:00N 59°24' E 018°21'0 0.0
2017-Jun-17 01:30N 59°24' E 018°21'0 0.0
2017-Jun-17 01:00N 59°24' E 018°21'0 0.0
2017-Jun-17 00:29N 59°24' E 018°21'0 0.0
2017-Jun-17 00:00N 59°24' E 018°21'0 0.0
2017-Jun-16 23:29N 59°24' E 018°21'0 0.0
2017-Jun-16 23:00N 59°24' E 018°21'0 0.0
2017-Jun-16 22:29N 59°24' E 018°21'0 0.0
2017-Jun-16 22:00N 59°24' E 018°21'0 0.0
2017-Jun-16 21:29N 59°24' E 018°21'0 0.0
2017-Jun-16 21:00N 59°24' E 018°21'0 0.0
2017-Jun-16 20:29N 59°24' E 018°21'0 0.0
2017-Jun-16 20:00N 59°24' E 018°21'0 0.0
2017-Jun-16 19:29N 59°24' E 018°21'0 0.0
2017-Jun-16 19:00N 59°24' E 018°21'0 0.0
2017-Jun-16 18:30N 59°24' E 018°21'0 0.0
2017-Jun-16 18:00N 59°24' E 018°21'0 0.0
2017-Jun-16 17:28N 59°24' E 018°21'0 0.0
2017-Jun-16 17:00N 59°24' E 018°21'2 3.1
2017-Jun-16 16:31N 59°23' E 018°24'1 3.0
2017-Jun-16 16:00N 59°24' E 018°21'0 0.3
2017-Jun-16 15:30N 59°24' E 018°21'1 2.9
2017-Jun-16 15:00N 59°23' E 018°23'2 2.2
2017-Jun-16 14:01N 59°22' E 018°26'3 5.4
2017-Jun-16 13:30N 59°24' E 018°22'1 1.3
2017-Jun-16 13:00N 59°23' E 018°24'1 1.7
2017-Jun-16 12:31N 59°24' E 018°22'1 1.0
2017-Jun-16 12:00N 59°24' E 018°21'0 0.0
2017-Jun-16 11:30N 59°24' E 018°21'1 1.3
2017-Jun-16 11:00N 59°25' E 018°21'1 1.3
2017-Jun-16 10:31N 59°24' E 018°21'2 4.4
2017-Jun-16 10:00N 59°23' E 018°25'2 4.4
2017-Jun-16 09:30N 59°24' E 018°21'0 0.0
2017-Jun-16 09:00N 59°24' E 018°21'0 0.1
2017-Jun-16 08:30N 59°24' E 018°21'0 0.1
2017-Jun-16 08:00N 59°24' E 018°21'1 2.8
2017-Jun-16 07:30N 59°23' E 018°24'2 3.3
2017-Jun-16 06:53N 59°22' E 018°26'3 8.4
2017-Jun-16 06:29N 59°24' E 018°21'1 2.0
2017-Jun-16 06:00N 59°24' E 018°23'1 2.1
2017-Jun-16 05:30N 59°24' E 018°21'0 0.0
2017-Jun-16 05:00N 59°24' E 018°21'1 1.4
2017-Jun-16 04:30N 59°25' E 018°22'1 1.3
2017-Jun-16 04:00N 59°24' E 018°21'0 0.0
2017-Jun-16 03:30N 59°24' E 018°21'0 0.0
2017-Jun-16 03:00N 59°24' E 018°21'0 0.0
2017-Jun-16 02:30N 59°24' E 018°21'0 0.0
2017-Jun-16 02:00N 59°24' E 018°21'0 0.0
2017-Jun-16 01:30N 59°24' E 018°21'0 0.0
2017-Jun-16 01:00N 59°24' E 018°21'0 0.0
2017-Jun-16 00:30N 59°24' E 018°21'0 0.0
2017-Jun-16 00:00N 59°24' E 018°21'0 0.0
2017-Jun-15 23:30N 59°24' E 018°21'0 0.0
2017-Jun-15 23:00N 59°24' E 018°21'0 0.0
2017-Jun-15 22:30N 59°24' E 018°21'0 0.0
2017-Jun-15 22:01N 59°24' E 018°21'0 0.0
2017-Jun-15 21:30N 59°24' E 018°21'0 0.0
2017-Jun-15 21:00N 59°24' E 018°21'0 0.0
2017-Jun-15 20:30N 59°24' E 018°21'0 0.0
2017-Jun-15 20:00N 59°24' E 018°21'0 0.0
2017-Jun-15 19:30N 59°24' E 018°21'0 0.0
2017-Jun-15 18:24N 59°24' E 018°21'0 0.0
2017-Jun-15 18:00N 59°24' E 018°21'0 0.0
2017-Jun-15 17:30N 59°24' E 018°21'0 0.0
2017-Jun-15 17:00N 59°24' E 018°21'0 0.0
2017-Jun-15 16:30N 59°24' E 018°21'1 1.8
2017-Jun-15 16:00N 59°25' E 018°22'1 2.3
2017-Jun-15 15:30N 59°24' E 018°22'1 1.4
2017-Jun-15 15:00N 59°24' E 018°21'0 0.0
2017-Jun-15 14:00N 59°24' E 018°21'1 1.7
2017-Jun-15 13:30N 59°24' E 018°23'3 4.5
2017-Jun-15 12:56N 59°22' E 018°27'1 1.4
2017-Jun-15 12:29N 59°23' E 018°26'2 4.8
2017-Jun-15 12:00N 59°24' E 018°22'1 1.2
2017-Jun-15 11:30N 59°24' E 018°21'1 1.4
2017-Jun-15 11:01N 59°25' E 018°22'1 1.4
2017-Jun-15 10:30N 59°24' E 018°21'1 2.7
2017-Jun-15 09:59N 59°23' E 018°24'1 2.9
2017-Jun-15 09:30N 59°24' E 018°21'0 0.0
2017-Jun-15 09:00N 59°24' E 018°21'0 0.0
2017-Jun-15 08:30N 59°24' E 018°21'0 0.0
2017-Jun-15 08:00N 59°24' E 018°21'1 2.8
2017-Jun-15 07:30N 59°23' E 018°24'1 1.8
2017-Jun-15 06:47N 59°23' E 018°26'2 8.7
2017-Jun-15 06:30N 59°24' E 018°22'1 1.5
2017-Jun-15 06:01N 59°24' E 018°23'1 2.0
2017-Jun-15 05:30N 59°24' E 018°21'0 0.2
2017-Jun-15 05:00N 59°24' E 018°21'0 0.9
2017-Jun-15 04:30N 59°25' E 018°22'0 0.9
2017-Jun-15 04:00N 59°24' E 018°21'0 0.0
2017-Jun-15 03:29N 59°24' E 018°21'0 0.0
2017-Jun-15 03:00N 59°24' E 018°21'0 0.0
2017-Jun-15 02:31N 59°24' E 018°21'0 0.0
2017-Jun-15 02:00N 59°24' E 018°21'0 0.0
2017-Jun-15 01:30N 59°24' E 018°21'0 0.0
2017-Jun-15 01:01N 59°24' E 018°21'0 0.0
2017-Jun-15 00:30N 59°24' E 018°21'0 0.0
2017-Jun-15 00:00N 59°24' E 018°21'0 0.0
2017-Jun-14 23:30N 59°24' E 018°21'0 0.0
2017-Jun-14 23:00N 59°24' E 018°21'0 0.0
2017-Jun-14 22:30N 59°24' E 018°21'0 0.0
2017-Jun-14 22:01N 59°24' E 018°21'0 0.0
2017-Jun-14 21:30N 59°24' E 018°21'0 0.0
2017-Jun-14 21:00N 59°24' E 018°21'0 0.0
2017-Jun-14 20:30N 59°24' E 018°21'0 0.0
2017-Jun-14 20:00N 59°24' E 018°21'0 0.0
2017-Jun-14 19:30N 59°24' E 018°21'0 0.0
2017-Jun-14 19:01N 59°24' E 018°21'0 0.0
2017-Jun-14 18:30N 59°24' E 018°21'0 0.0
2017-Jun-14 18:00N 59°24' E 018°21'0 0.0
2017-Jun-14 17:30N 59°24' E 018°21'0 0.0
2017-Jun-14 17:00N 59°24' E 018°21'0 0.0
2017-Jun-14 16:30N 59°24' E 018°21'1 1.0
2017-Jun-14 16:00N 59°25' E 018°22'1 1.5
2017-Jun-14 15:30N 59°24' E 018°22'0 1.0
2017-Jun-14 15:00N 59°24' E 018°21'0 0.0
2017-Jun-14 14:00N 59°24' E 018°21'1 1.3
2017-Jun-14 13:29N 59°24' E 018°22'1 1.9
2017-Jun-14 13:00N 59°23' E 018°24'2 3.3
2017-Jun-14 12:27N 59°22' E 018°26'3 5.7
2017-Jun-14 11:59N 59°24' E 018°22'1 1.2
2017-Jun-14 11:30N 59°24' E 018°21'1 1.5
2017-Jun-14 11:00N 59°25' E 018°22'1 1.5
2017-Jun-14 10:30N 59°24' E 018°21'2 3.1
2017-Jun-14 10:00N 59°23' E 018°24'2 3.0
2017-Jun-14 09:30N 59°24' E 018°21'0 0.9
2017-Jun-14 09:00N 59°24' E 018°22'0 0.0
2017-Jun-14 08:30N 59°24' E 018°22'0 0.0
2017-Jun-14 07:59N 59°24' E 018°22'0 0.0
2017-Jun-14 07:30N 59°24' E 018°22'0 0.0
2017-Jun-14 07:00N 59°24' E 018°22'0 0.0
2017-Jun-14 06:30N 59°24' E 018°22'0 0.0
2017-Jun-14 06:00N 59°24' E 018°22'0 0.0
2017-Jun-14 05:30N 59°24' E 018°22'1 2.4
2017-Jun-14 05:00N 59°25' E 018°21'0 0.6
2017-Jun-14 04:31N 59°25' E 018°21'1 2.6
2017-Jun-14 04:00N 59°24' E 018°21'0 0.0
2017-Jun-14 03:30N 59°24' E 018°21'0 0.0
2017-Jun-14 03:00N 59°24' E 018°21'0 0.0
2017-Jun-14 02:30N 59°24' E 018°21'0 0.0
2017-Jun-14 02:00N 59°24' E 018°21'0 0.0
2017-Jun-14 01:30N 59°24' E 018°21'0 0.0
2017-Jun-14 01:00N 59°24' E 018°21'0 0.0
2017-Jun-14 00:30N 59°24' E 018°21'0 0.0
2017-Jun-14 00:00N 59°24' E 018°21'0 0.0
2017-Jun-13 23:30N 59°24' E 018°21'0 0.0
2017-Jun-13 23:00N 59°24' E 018°21'0 0.0
2017-Jun-13 22:30N 59°24' E 018°21'0 0.0
2017-Jun-13 22:00N 59°24' E 018°21'0 0.0
2017-Jun-13 21:30N 59°24' E 018°21'0 0.0
2017-Jun-13 21:00N 59°24' E 018°21'0 0.0
2017-Jun-13 20:30N 59°24' E 018°21'0 0.0
2017-Jun-13 20:00N 59°24' E 018°21'0 0.0
2017-Jun-13 19:30N 59°24' E 018°21'0 0.0
2017-Jun-13 19:00N 59°24' E 018°21'0 0.0
2017-Jun-13 18:30N 59°24' E 018°21'0 0.0
2017-Jun-13 18:00N 59°24' E 018°21'0 0.0
2017-Jun-13 17:30N 59°24' E 018°21'0 0.0
2017-Jun-13 17:00N 59°24' E 018°21'0 0.0
2017-Jun-13 16:30N 59°24' E 018°21'1 1.6
2017-Jun-13 16:00N 59°25' E 018°22'1 2.2
2017-Jun-13 15:29N 59°24' E 018°23'1 1.7
2017-Jun-13 15:00N 59°24' E 018°21'0 0.0
2017-Jun-13 14:00N 59°24' E 018°21'1 1.2
2017-Jun-13 13:29N 59°24' E 018°22'1 2.6
2017-Jun-13 12:59N 59°23' E 018°25'2 3.9
2017-Jun-13 12:31N 59°22' E 018°26'3 5.2
2017-Jun-13 11:59N 59°24' E 018°23'1 1.6
2017-Jun-13 11:30N 59°24' E 018°21'1 1.4
2017-Jun-13 11:00N 59°25' E 018°22'1 1.4
2017-Jun-13 10:30N 59°24' E 018°21'1 2.9
2017-Jun-13 10:00N 59°23' E 018°24'1 2.7
2017-Jun-13 09:29N 59°24' E 018°21'0 0.0
2017-Jun-13 09:00N 59°24' E 018°21'0 0.0
2017-Jun-13 08:30N 59°24' E 018°21'0 0.0
2017-Jun-13 08:00N 59°24' E 018°21'1 2.7
2017-Jun-13 07:30N 59°23' E 018°24'2 3.9
2017-Jun-13 06:57N 59°22' E 018°26'3 7.3
2017-Jun-13 06:30N 59°24' E 018°22'1 1.3
2017-Jun-13 05:59N 59°24' E 018°23'1 1.8
2017-Jun-13 05:30N 59°24' E 018°21'  
Track history (hours):
 
Tides and Currents Weather Stations Pressure Air Temp Water Temp Dewpoint Dewpoint Depression Visibility Wind Speed Wind Dir Waves Ship Positions

Silvero

Last reported at 2017-Jun-23 05:00 UTC. Time now 2017-Jun-23 05:16 UTC.
Position N 59°24' E 018°21'.

Length 22 m.

Type: Passenger vessel. MMSI: 265568520.

Date/timePositionNaut miles runAvg speedWind from/ knotsBaromVisibWave heightAir tempDewpointWater temp
2017-Jun-23 05:00N 59°24' E 018°21'0 0.0
2017-Jun-23 04:30N 59°24' E 018°21'0 0.0
2017-Jun-23 04:00N 59°24' E 018°21'0 0.0
2017-Jun-23 03:30N 59°24' E 018°21'0 0.0
2017-Jun-23 03:00N 59°24' E 018°21'0 0.0
2017-Jun-23 02:30N 59°24' E 018°21'0 0.0
2017-Jun-23 02:00N 59°24' E 018°21'0 0.0
2017-Jun-23 01:30N 59°24' E 018°21'0 0.0
2017-Jun-23 01:00N 59°24' E 018°21'0 0.0
2017-Jun-23 00:30N 59°24' E 018°21'0 0.0
2017-Jun-23 00:00N 59°24' E 018°21'0 0.0
2017-Jun-22 23:30N 59°24' E 018°21'0 0.0
2017-Jun-22 22:59N 59°24' E 018°21'0 0.0
2017-Jun-22 22:30N 59°24' E 018°21'0 0.0
2017-Jun-22 22:00N 59°24' E 018°21'0 0.0
2017-Jun-22 21:30N 59°24' E 018°21'0 0.0
2017-Jun-22 21:00N 59°24' E 018°21'0 0.0
2017-Jun-22 20:30N 59°24' E 018°21'0 0.0
2017-Jun-22 20:00N 59°24' E 018°21'0 0.0
2017-Jun-22 19:30N 59°24' E 018°21'0 0.0
2017-Jun-22 18:59N 59°24' E 018°21'0 0.0
2017-Jun-22 18:30N 59°24' E 018°21'0 0.0
2017-Jun-22 18:00N 59°24' E 018°21'3 5.0
2017-Jun-22 17:30N 59°23' E 018°25'1 1.0
2017-Jun-22 16:58N 59°23' E 018°26'2 3.9
2017-Jun-22 16:30N 59°24' E 018°23'1 1.5
2017-Jun-22 16:00N 59°23' E 018°24'1 2.1
2017-Jun-22 15:20N 59°22' E 018°24'2 7.0
2017-Jun-22 15:00N 59°22' E 018°19'1 2.0
2017-Jun-22 14:30N 59°23' E 018°19'4 3.8
2017-Jun-22 13:27N 59°22' E 018°27'1 1.0
2017-Jun-22 12:50N 59°23' E 018°26'2 6.4
2017-Jun-22 12:31N 59°24' E 018°23'1 1.4
2017-Jun-22 12:00N 59°23' E 018°24'2 3.4
2017-Jun-22 11:30N 59°25' E 018°22'1 2.1
2017-Jun-22 11:00N 59°24' E 018°21'0 0.0
2017-Jun-22 10:30N 59°24' E 018°21'0 0.0
2017-Jun-22 10:00N 59°24' E 018°21'0 0.0
2017-Jun-22 09:30N 59°24' E 018°21'0 0.0
2017-Jun-22 09:00N 59°24' E 018°21'0 0.0
2017-Jun-22 08:30N 59°24' E 018°21'0 0.0
2017-Jun-22 08:00N 59°24' E 018°21'1 2.9
2017-Jun-22 07:30N 59°23' E 018°24'2 3.1
2017-Jun-22 06:54N 59°22' E 018°26'2 4.8
2017-Jun-22 06:30N 59°23' E 018°24'1 2.9
2017-Jun-22 06:01N 59°24' E 018°21'2 3.6
2017-Jun-22 05:30N 59°22' E 018°22'2 4.2
2017-Jun-22 04:58N 59°23' E 018°26'3 6.5
2017-Jun-22 04:30N 59°25' E 018°22'3 5.9
2017-Jun-22 03:58N 59°26' E 018°28'2 4.6
2017-Jun-22 03:31N 59°26' E 018°24'3 5.1
2017-Jun-22 03:00N 59°24' E 018°21'0 0.0
2017-Jun-22 02:30N 59°24' E 018°21'0 0.0
2017-Jun-22 02:00N 59°24' E 018°21'0 0.0
2017-Jun-22 01:30N 59°24' E 018°21'0 0.0
2017-Jun-22 01:00N 59°24' E 018°21'0 0.0
2017-Jun-22 00:30N 59°24' E 018°21'0 0.0
2017-Jun-22 00:00N 59°24' E 018°21'0 0.0
2017-Jun-21 23:30N 59°24' E 018°21'0 0.0
2017-Jun-21 23:00N 59°24' E 018°21'0 0.0
2017-Jun-21 22:30N 59°24' E 018°21'0 0.0
2017-Jun-21 22:00N 59°24' E 018°21'0 0.0
2017-Jun-21 21:30N 59°24' E 018°21'0 0.0
2017-Jun-21 21:00N 59°24' E 018°21'0 0.0
2017-Jun-21 20:30N 59°24' E 018°21'0 0.0
2017-Jun-21 20:00N 59°24' E 018°21'0 0.0
2017-Jun-21 19:30N 59°24' E 018°21'0 0.0
2017-Jun-21 19:00N 59°24' E 018°21'0 0.0
2017-Jun-21 18:30N 59°24' E 018°21'0 0.0
2017-Jun-21 18:00N 59°24' E 018°21'2 3.3
2017-Jun-21 17:29N 59°23' E 018°24'1 1.4
2017-Jun-21 16:41N 59°23' E 018°26'1 4.8
2017-Jun-21 16:30N 59°23' E 018°25'2 4.6
2017-Jun-21 16:00N 59°24' E 018°21'3 6.7
2017-Jun-21 15:30N 59°22' E 018°27'3 6.1
2017-Jun-21 15:00N 59°22' E 018°21'2 4.4
2017-Jun-21 14:30N 59°22' E 018°16'5 4.8
2017-Jun-21 13:30N 59°23' E 018°26'1 1.6
2017-Jun-21 13:00N 59°22' E 018°26'2 4.9
2017-Jun-21 12:30N 59°24' E 018°23'0 1.0
2017-Jun-21 12:00N 59°23' E 018°24'2 3.6
2017-Jun-21 11:29N 59°25' E 018°22'1 2.7
2017-Jun-21 11:00N 59°24' E 018°21'0 0.0
2017-Jun-21 10:30N 59°24' E 018°21'0 0.0
2017-Jun-21 10:00N 59°24' E 018°21'0 0.0
2017-Jun-21 09:30N 59°24' E 018°21'0 0.0
2017-Jun-21 09:00N 59°24' E 018°21'0 0.0
2017-Jun-21 08:30N 59°24' E 018°21'0 0.0
2017-Jun-21 08:01N 59°24' E 018°21'2 3.0
2017-Jun-21 07:30N 59°23' E 018°24'2 2.8
2017-Jun-21 06:47N 59°22' E 018°27'2 7.5
2017-Jun-21 06:30N 59°23' E 018°24'1 2.7
2017-Jun-21 06:00N 59°24' E 018°21'2 3.4
2017-Jun-21 05:30N 59°22' E 018°22'2 3.2
2017-Jun-21 04:56N 59°23' E 018°25'3 5.9
2017-Jun-21 04:30N 59°24' E 018°21'0 0.0
2017-Jun-21 04:00N 59°24' E 018°21'0 0.0
2017-Jun-21 03:30N 59°24' E 018°21'0 0.0
2017-Jun-21 03:00N 59°24' E 018°21'0 0.0
2017-Jun-21 02:30N 59°24' E 018°21'0 0.0
2017-Jun-21 02:00N 59°24' E 018°21'0 0.0
2017-Jun-21 01:30N 59°24' E 018°21'0 0.0
2017-Jun-21 01:00N 59°24' E 018°21'0 0.0
2017-Jun-21 00:30N 59°24' E 018°21'0 0.0
2017-Jun-21 00:00N 59°24' E 018°21'0 0.0
2017-Jun-20 23:31N 59°24' E 018°21'0 0.0
2017-Jun-20 23:00N 59°24' E 018°21'0 0.0
2017-Jun-20 22:30N 59°24' E 018°21'0 0.0
2017-Jun-20 22:00N 59°24' E 018°21'0 0.0
2017-Jun-20 21:30N 59°24' E 018°21'0 0.0
2017-Jun-20 21:00N 59°24' E 018°21'0 0.0
2017-Jun-20 20:30N 59°24' E 018°21'0 0.0
2017-Jun-20 20:00N 59°24' E 018°21'0 0.0
2017-Jun-20 19:30N 59°24' E 018°21'0 0.0
2017-Jun-20 19:00N 59°24' E 018°21'0 0.0
2017-Jun-20 18:30N 59°24' E 018°21'0 0.0
2017-Jun-20 17:59N 59°24' E 018°21'2 3.5
2017-Jun-20 17:29N 59°23' E 018°24'1 2.2
2017-Jun-20 16:48N 59°22' E 018°26'1 3.0
2017-Jun-20 16:27N 59°23' E 018°26'3 6.1
2017-Jun-20 16:00N 59°24' E 018°21'3 6.1
2017-Jun-20 15:27N 59°22' E 018°27'3 5.9
2017-Jun-20 15:00N 59°22' E 018°22'1 1.4
2017-Jun-20 14:00N 59°24' E 018°23'2 3.3
2017-Jun-20 13:30N 59°23' E 018°26'1 1.8
2017-Jun-20 12:58N 59°22' E 018°27'3 5.8
2017-Jun-20 12:30N 59°24' E 018°23'1 1.3
2017-Jun-20 12:00N 59°23' E 018°24'2 4.3
2017-Jun-20 11:30N 59°25' E 018°22'1 2.5
2017-Jun-20 11:00N 59°24' E 018°21'0 0.0
2017-Jun-20 10:29N 59°24' E 018°21'1 1.7
2017-Jun-20 10:00N 59°24' E 018°23'1 1.7
2017-Jun-20 09:30N 59°24' E 018°21'0 0.9
2017-Jun-20 09:00N 59°24' E 018°22'0 0.0
2017-Jun-20 08:30N 59°24' E 018°22'0 0.9
2017-Jun-20 08:00N 59°24' E 018°21'1 1.7
2017-Jun-20 07:30N 59°24' E 018°23'3 4.4
2017-Jun-20 06:54N 59°22' E 018°26'2 5.7
2017-Jun-20 06:30N 59°23' E 018°24'1 2.7
2017-Jun-20 06:00N 59°24' E 018°21'2 3.4
2017-Jun-20 05:31N 59°22' E 018°22'2 4.1
2017-Jun-20 04:59N 59°23' E 018°26'3 6.1
2017-Jun-20 04:31N 59°24' E 018°21'0 0.0
2017-Jun-20 04:00N 59°24' E 018°21'0 0.0
2017-Jun-20 03:30N 59°24' E 018°21'0 0.0
2017-Jun-20 03:00N 59°24' E 018°21'0 0.0
2017-Jun-20 02:30N 59°24' E 018°21'0 0.0
2017-Jun-20 02:00N 59°24' E 018°21'0 0.0
2017-Jun-20 01:30N 59°24' E 018°21'0 0.0
2017-Jun-20 01:00N 59°24' E 018°21'0 0.0
2017-Jun-20 00:30N 59°24' E 018°21'0 0.0
2017-Jun-20 00:00N 59°24' E 018°21'0 0.0
2017-Jun-19 23:30N 59°24' E 018°21'0 0.0
2017-Jun-19 23:00N 59°24' E 018°21'0 0.0
2017-Jun-19 22:30N 59°24' E 018°21'0 0.0
2017-Jun-19 22:00N 59°24' E 018°21'0 0.0
2017-Jun-19 21:30N 59°24' E 018°21'0 0.0
2017-Jun-19 21:00N 59°24' E 018°21'0 0.0
2017-Jun-19 20:30N 59°24' E 018°21'0 0.0
2017-Jun-19 20:00N 59°24' E 018°21'0 0.0
2017-Jun-19 19:30N 59°24' E 018°21'0 0.0
2017-Jun-19 19:00N 59°24' E 018°21'0 0.0
2017-Jun-19 18:30N 59°24' E 018°21'0 0.0
2017-Jun-19 18:00N 59°24' E 018°21'1 1.7
2017-Jun-19 17:30N 59°24' E 018°23'2 2.1
2017-Jun-19 16:35N 59°23' E 018°26'0 4.0
2017-Jun-19 16:30N 59°23' E 018°26'2 4.8
2017-Jun-19 16:00N 59°24' E 018°21'3 6.4
2017-Jun-19 15:29N 59°22' E 018°26'4 7.9
2017-Jun-19 15:00N 59°22' E 018°19'2 4.8
2017-Jun-19 14:30N 59°24' E 018°21'3 3.0
2017-Jun-19 13:29N 59°22' E 018°26'2 2.3
2017-Jun-19 12:46N 59°23' E 018°24'1 3.6
2017-Jun-19 12:31N 59°24' E 018°23'1 2.9
2017-Jun-19 12:00N 59°23' E 018°25'2 5.1
2017-Jun-19 11:30N 59°25' E 018°22'1 2.2
2017-Jun-19 11:00N 59°24' E 018°21'0 0.0
2017-Jun-19 10:29N 59°24' E 018°21'0 0.0
2017-Jun-19 10:00N 59°24' E 018°21'0 0.0
2017-Jun-19 09:30N 59°24' E 018°21'0 0.0
2017-Jun-19 09:00N 59°24' E 018°21'0 0.0
2017-Jun-19 08:30N 59°24' E 018°21'0 0.0
2017-Jun-19 08:00N 59°24' E 018°21'1 2.0
2017-Jun-19 07:30N 59°24' E 018°23'2 3.6
2017-Jun-19 06:52N 59°22' E 018°26'2 6.1
2017-Jun-19 06:30N 59°24' E 018°23'1 2.2
2017-Jun-19 06:00N 59°24' E 018°21'2 3.3
2017-Jun-19 05:31N 59°22' E 018°22'2 4.1
2017-Jun-19 04:59N 59°23' E 018°26'3 5.8
2017-Jun-19 04:31N 59°24' E 018°21'0 0.0
2017-Jun-19 04:00N 59°24' E 018°21'0 0.0
2017-Jun-19 03:30N 59°24' E 018°21'0 0.0
2017-Jun-19 03:00N 59°24' E 018°21'0 0.0
2017-Jun-19 02:30N 59°24' E 018°21'0 0.0
2017-Jun-19 02:00N 59°24' E 018°21'0 0.0
2017-Jun-19 01:30N 59°24' E 018°21'0 0.0
2017-Jun-19 01:00N 59°24' E 018°21'0 0.0
2017-Jun-19 00:30N 59°24' E 018°21'0 0.0
2017-Jun-19 00:00N 59°24' E 018°21'0 0.0
2017-Jun-18 23:30N 59°24' E 018°21'0 0.0
2017-Jun-18 23:00N 59°24' E 018°21'0 0.0
2017-Jun-18 22:30N 59°24' E 018°21'0 0.0
2017-Jun-18 22:00N 59°24' E 018°21'0 0.0
2017-Jun-18 21:30N 59°24' E 018°21'0 0.0
2017-Jun-18 21:01N 59°24' E 018°21'0 0.0
2017-Jun-18 20:30N 59°24' E 018°21'0 0.0
2017-Jun-18 20:01N 59°24' E 018°21'0 0.0
2017-Jun-18 19:31N 59°24' E 018°21'0 0.0
2017-Jun-18 19:00N 59°24' E 018°21'0 0.0
2017-Jun-18 18:30N 59°24' E 018°21'0 0.1
2017-Jun-18 18:00N 59°24' E 018°21'2 4.5
2017-Jun-18 17:30N 59°23' E 018°25'1 1.9
2017-Jun-18 16:53N 59°22' E 018°26'2 6.3
2017-Jun-18 16:30N 59°24' E 018°23'1 1.8
2017-Jun-18 16:00N 59°24' E 018°21'0 0.0
2017-Jun-18 15:30N 59°24' E 018°21'0 0.0
2017-Jun-18 15:00N 59°24' E 018°21'0 0.0
2017-Jun-18 14:00N 59°24' E 018°21'2 4.7
2017-Jun-18 13:29N 59°23' E 018°26'1 2.0
2017-Jun-18 12:58N 59°22' E 018°26'3 7.0
2017-Jun-18 12:30N 59°24' E 018°21'0 0.0
2017-Jun-18 12:00N 59°24' E 018°21'0 0.7
2017-Jun-18 11:30N 59°24' E 018°21'1 2.5
2017-Jun-18 11:00N 59°24' E 018°23'1 1.2
2017-Jun-18 10:30N 59°24' E 018°22'0 0.9
2017-Jun-18 10:00N 59°24' E 018°21'2 4.6
2017-Jun-18 09:29N 59°23' E 018°26'1 2.0
2017-Jun-18 08:54N 59°22' E 018°26'2 4.8
2017-Jun-18 08:30N 59°23' E 018°24'2 3.4
2017-Jun-18 08:00N 59°25' E 018°21'1 1.1
2017-Jun-18 07:30N 59°24' E 018°21'0 0.0
2017-Jun-18 07:00N 59°24' E 018°21'1 2.0
2017-Jun-18 06:30N 59°24' E 018°23'1 2.0
2017-Jun-18 06:00N 59°24' E 018°21'0 0.0
2017-Jun-18 05:30N 59°24' E 018°21'0 0.0
2017-Jun-18 05:00N 59°24' E 018°21'0 0.0
2017-Jun-18 04:30N 59°24' E 018°21'0 0.0
2017-Jun-18 04:00N 59°24' E 018°21'0 0.0
2017-Jun-18 03:30N 59°24' E 018°21'0 0.0
2017-Jun-18 03:00N 59°24' E 018°21'0 0.0
2017-Jun-18 02:31N 59°24' E 018°21'0 0.0
2017-Jun-18 02:00N 59°24' E 018°21'0 0.0
2017-Jun-18 01:30N 59°24' E 018°21'0 0.0
2017-Jun-18 01:00N 59°24' E 018°21'0 0.0
2017-Jun-18 00:30N 59°24' E 018°21'0 0.0
2017-Jun-18 00:00N 59°24' E 018°21'0 0.0
2017-Jun-17 23:30N 59°24' E 018°21'0 0.0
2017-Jun-17 23:00N 59°24' E 018°21'0 0.0
2017-Jun-17 22:30N 59°24' E 018°21'0 0.0
2017-Jun-17 22:00N 59°24' E 018°21'0 0.0
2017-Jun-17 21:30N 59°24' E 018°21'0 0.0
2017-Jun-17 21:00N 59°24' E 018°21'0 0.0
2017-Jun-17 20:30N 59°24' E 018°21'0 0.0
2017-Jun-17 20:00N 59°24' E 018°21'0 0.0
2017-Jun-17 19:30N 59°24' E 018°21'0 0.0
2017-Jun-17 19:00N 59°24' E 018°21'0 0.0
2017-Jun-17 18:30N 59°24' E 018°21'0 0.0
2017-Jun-17 18:00N 59°24' E 018°21'0 0.0
2017-Jun-17 17:30N 59°24' E 018°21'0 0.0
2017-Jun-17 17:00N 59°24' E 018°21'1 1.0
2017-Jun-17 16:30N 59°25' E 018°21'1 1.1
2017-Jun-17 16:00N 59°24' E 018°21'1 1.7
2017-Jun-17 15:30N 59°24' E 018°23'1 0.5
2017-Jun-17 14:00N 59°24' E 018°21'1 1.5
2017-Jun-17 13:30N 59°25' E 018°22'1 1.6
2017-Jun-17 13:00N 59°24' E 018°21'0 0.0
2017-Jun-17 12:30N 59°24' E 018°21'0 0.0
2017-Jun-17 12:00N 59°24' E 018°21'0 0.0
2017-Jun-17 11:30N 59°24' E 018°21'0 0.0
2017-Jun-17 11:00N 59°24' E 018°21'0 0.0
2017-Jun-17 10:30N 59°24' E 018°21'4 8.0
2017-Jun-17 09:59N 59°27' E 018°27'1 2.0
2017-Jun-17 09:30N 59°27' E 018°29'4 8.2
2017-Jun-17 09:00N 59°25' E 018°22'1 1.9
2017-Jun-17 08:30N 59°24' E 018°21'2 3.7
2017-Jun-17 08:00N 59°23' E 018°25'1 1.1
2017-Jun-17 07:29N 59°23' E 018°24'2 3.5
2017-Jun-17 07:00N 59°21' E 018°25'2 4.0
2017-Jun-17 06:29N 59°23' E 018°23'0 0.7
2017-Jun-17 05:58N 59°24' E 018°23'1 2.1
2017-Jun-17 05:30N 59°24' E 018°21'0 0.0
2017-Jun-17 05:00N 59°24' E 018°21'0 0.0
2017-Jun-17 04:30N 59°24' E 018°21'0 0.0
2017-Jun-17 04:00N 59°24' E 018°21'0 0.0
2017-Jun-17 03:30N 59°24' E 018°21'0 0.0
2017-Jun-17 03:00N 59°24' E 018°21'0 0.0
2017-Jun-17 02:30N 59°24' E 018°21'0 0.0
2017-Jun-17 02:00N 59°24' E 018°21'0 0.0
2017-Jun-17 01:30N 59°24' E 018°21'0 0.0
2017-Jun-17 01:00N 59°24' E 018°21'0 0.0
2017-Jun-17 00:29N 59°24' E 018°21'0 0.0
2017-Jun-17 00:00N 59°24' E 018°21'0 0.0
2017-Jun-16 23:29N 59°24' E 018°21'0 0.0
2017-Jun-16 23:00N 59°24' E 018°21'0 0.0
2017-Jun-16 22:29N 59°24' E 018°21'0 0.0
2017-Jun-16 22:00N 59°24' E 018°21'0 0.0
2017-Jun-16 21:29N 59°24' E 018°21'0 0.0
2017-Jun-16 21:00N 59°24' E 018°21'0 0.0
2017-Jun-16 20:29N 59°24' E 018°21'0 0.0
2017-Jun-16 20:00N 59°24' E 018°21'0 0.0
2017-Jun-16 19:29N 59°24' E 018°21'0 0.0
2017-Jun-16 19:00N 59°24' E 018°21'0 0.0
2017-Jun-16 18:30N 59°24' E 018°21'0 0.0
2017-Jun-16 18:00N 59°24' E 018°21'0 0.0
2017-Jun-16 17:28N 59°24' E 018°21'0 0.0
2017-Jun-16 17:00N 59°24' E 018°21'2 3.1
2017-Jun-16 16:31N 59°23' E 018°24'1 3.0
2017-Jun-16 16:00N 59°24' E 018°21'0 0.3
2017-Jun-16 15:30N 59°24' E 018°21'1 2.9
2017-Jun-16 15:00N 59°23' E 018°23'2 2.2
2017-Jun-16 14:01N 59°22' E 018°26'3 5.4
2017-Jun-16 13:30N 59°24' E 018°22'1 1.3
2017-Jun-16 13:00N 59°23' E 018°24'1 1.7
2017-Jun-16 12:31N 59°24' E 018°22'1 1.0
2017-Jun-16 12:00N 59°24' E 018°21'0 0.0
2017-Jun-16 11:30N 59°24' E 018°21'1 1.3
2017-Jun-16 11:00N 59°25' E 018°21'1 1.3
2017-Jun-16 10:31N 59°24' E 018°21'2 4.4
2017-Jun-16 10:00N 59°23' E 018°25'2 4.4
2017-Jun-16 09:30N 59°24' E 018°21'0 0.0
2017-Jun-16 09:00N 59°24' E 018°21'0 0.1
2017-Jun-16 08:30N 59°24' E 018°21'0 0.1
2017-Jun-16 08:00N 59°24' E 018°21'1 2.8
2017-Jun-16 07:30N 59°23' E 018°24'2 3.3
2017-Jun-16 06:53N 59°22' E 018°26'3 8.4
2017-Jun-16 06:29N 59°24' E 018°21'1 2.0
2017-Jun-16 06:00N 59°24' E 018°23'1 2.1
2017-Jun-16 05:30N 59°24' E 018°21'0 0.0
2017-Jun-16 05:00N 59°24' E 018°21'1 1.4
2017-Jun-16 04:30N 59°25' E 018°22'1 1.3
2017-Jun-16 04:00N 59°24' E 018°21'0 0.0
2017-Jun-16 03:30N 59°24' E 018°21'0 0.0
2017-Jun-16 03:00N 59°24' E 018°21'0 0.0
2017-Jun-16 02:30N 59°24' E 018°21'0 0.0
2017-Jun-16 02:00N 59°24' E 018°21'0 0.0
2017-Jun-16 01:30N 59°24' E 018°21'0 0.0
2017-Jun-16 01:00N 59°24' E 018°21'0 0.0
2017-Jun-16 00:30N 59°24' E 018°21'0 0.0
2017-Jun-16 00:00N 59°24' E 018°21'0 0.0
2017-Jun-15 23:30N 59°24' E 018°21'0 0.0
2017-Jun-15 23:00N 59°24' E 018°21'0 0.0
2017-Jun-15 22:30N 59°24' E 018°21'0 0.0
2017-Jun-15 22:01N 59°24' E 018°21'0 0.0
2017-Jun-15 21:30N 59°24' E 018°21'0 0.0
2017-Jun-15 21:00N 59°24' E 018°21'0 0.0
2017-Jun-15 20:30N 59°24' E 018°21'0 0.0
2017-Jun-15 20:00N 59°24' E 018°21'0 0.0
2017-Jun-15 19:30N 59°24' E 018°21'0 0.0
2017-Jun-15 18:24N 59°24' E 018°21'0 0.0
2017-Jun-15 18:00N 59°24' E 018°21'0 0.0
2017-Jun-15 17:30N 59°24' E 018°21'0 0.0
2017-Jun-15 17:00N 59°24' E 018°21'0 0.0
2017-Jun-15 16:30N 59°24' E 018°21'1 1.8
2017-Jun-15 16:00N 59°25' E 018°22'1 2.3
2017-Jun-15 15:30N 59°24' E 018°22'1 1.4
2017-Jun-15 15:00N 59°24' E 018°21'0 0.0
2017-Jun-15 14:00N 59°24' E 018°21'1 1.7
2017-Jun-15 13:30N 59°24' E 018°23'3 4.5
2017-Jun-15 12:56N 59°22' E 018°27'1 1.4
2017-Jun-15 12:29N 59°23' E 018°26'2 4.8
2017-Jun-15 12:00N 59°24' E 018°22'1 1.2
2017-Jun-15 11:30N 59°24' E 018°21'1 1.4
2017-Jun-15 11:01N 59°25' E 018°22'1 1.4
2017-Jun-15 10:30N 59°24' E 018°21'1 2.7
2017-Jun-15 09:59N 59°23' E 018°24'1 2.9
2017-Jun-15 09:30N 59°24' E 018°21'0 0.0
2017-Jun-15 09:00N 59°24' E 018°21'0 0.0
2017-Jun-15 08:30N 59°24' E 018°21'0 0.0
2017-Jun-15 08:00N 59°24' E 018°21'1 2.8
2017-Jun-15 07:30N 59°23' E 018°24'1 1.8
2017-Jun-15 06:47N 59°23' E 018°26'2 8.7
2017-Jun-15 06:30N 59°24' E 018°22'1 1.5
2017-Jun-15 06:01N 59°24' E 018°23'1 2.0
2017-Jun-15 05:30N 59°24' E 018°21'0 0.2
2017-Jun-15 05:00N 59°24' E 018°21'0 0.9
2017-Jun-15 04:30N 59°25' E 018°22'0 0.9
2017-Jun-15 04:00N 59°24' E 018°21'0 0.0
2017-Jun-15 03:29N 59°24' E 018°21'0 0.0
2017-Jun-15 03:00N 59°24' E 018°21'0 0.0
2017-Jun-15 02:31N 59°24' E 018°21'0 0.0
2017-Jun-15 02:00N 59°24' E 018°21'0 0.0
2017-Jun-15 01:30N 59°24' E 018°21'0 0.0
2017-Jun-15 01:01N 59°24' E 018°21'0 0.0
2017-Jun-15 00:30N 59°24' E 018°21'0 0.0
2017-Jun-15 00:00N 59°24' E 018°21'0 0.0
2017-Jun-14 23:30N 59°24' E 018°21'0 0.0
2017-Jun-14 23:00N 59°24' E 018°21'0 0.0
2017-Jun-14 22:30N 59°24' E 018°21'0 0.0
2017-Jun-14 22:01N 59°24' E 018°21'0 0.0
2017-Jun-14 21:30N 59°24' E 018°21'0 0.0
2017-Jun-14 21:00N 59°24' E 018°21'0 0.0
2017-Jun-14 20:30N 59°24' E 018°21'0 0.0
2017-Jun-14 20:00N 59°24' E 018°21'0 0.0
2017-Jun-14 19:30N 59°24' E 018°21'0 0.0
2017-Jun-14 19:01N 59°24' E 018°21'0 0.0
2017-Jun-14 18:30N 59°24' E 018°21'0 0.0
2017-Jun-14 18:00N 59°24' E 018°21'0 0.0
2017-Jun-14 17:30N 59°24' E 018°21'0 0.0
2017-Jun-14 17:00N 59°24' E 018°21'0 0.0
2017-Jun-14 16:30N 59°24' E 018°21'1 1.0
2017-Jun-14 16:00N 59°25' E 018°22'1 1.5
2017-Jun-14 15:30N 59°24' E 018°22'0 1.0
2017-Jun-14 15:00N 59°24' E 018°21'0 0.0
2017-Jun-14 14:00N 59°24' E 018°21'1 1.3
2017-Jun-14 13:29N 59°24' E 018°22'1 1.9
2017-Jun-14 13:00N 59°23' E 018°24'2 3.3
2017-Jun-14 12:27N 59°22' E 018°26'3 5.7
2017-Jun-14 11:59N 59°24' E 018°22'1 1.2
2017-Jun-14 11:30N 59°24' E 018°21'1 1.5
2017-Jun-14 11:00N 59°25' E 018°22'1 1.5
2017-Jun-14 10:30N 59°24' E 018°21'2 3.1
2017-Jun-14 10:00N 59°23' E 018°24'2 3.0
2017-Jun-14 09:30N 59°24' E 018°21'0 0.9
2017-Jun-14 09:00N 59°24' E 018°22'0 0.0
2017-Jun-14 08:30N 59°24' E 018°22'0 0.0
2017-Jun-14 07:59N 59°24' E 018°22'0 0.0
2017-Jun-14 07:30N 59°24' E 018°22'0 0.0
2017-Jun-14 07:00N 59°24' E 018°22'0 0.0
2017-Jun-14 06:30N 59°24' E 018°22'0 0.0
2017-Jun-14 06:00N 59°24' E 018°22'0 0.0
2017-Jun-14 05:30N 59°24' E 018°22'1 2.4
2017-Jun-14 05:00N 59°25' E 018°21'0 0.6
2017-Jun-14 04:31N 59°25' E 018°21'1 2.6
2017-Jun-14 04:00N 59°24' E 018°21'0 0.0
2017-Jun-14 03:30N 59°24' E 018°21'0 0.0
2017-Jun-14 03:00N 59°24' E 018°21'0 0.0
2017-Jun-14 02:30N 59°24' E 018°21'0 0.0
2017-Jun-14 02:00N 59°24' E 018°21'0 0.0
2017-Jun-14 01:30N 59°24' E 018°21'0 0.0
2017-Jun-14 01:00N 59°24' E 018°21'0 0.0
2017-Jun-14 00:30N 59°24' E 018°21'0 0.0
2017-Jun-14 00:00N 59°24' E 018°21'0 0.0
2017-Jun-13 23:30N 59°24' E 018°21'0 0.0
2017-Jun-13 23:00N 59°24' E 018°21'0 0.0
2017-Jun-13 22:30N 59°24' E 018°21'0 0.0
2017-Jun-13 22:00N 59°24' E 018°21'0 0.0
2017-Jun-13 21:30N 59°24' E 018°21'0 0.0
2017-Jun-13 21:00N 59°24' E 018°21'0 0.0
2017-Jun-13 20:30N 59°24' E 018°21'0 0.0
2017-Jun-13 20:00N 59°24' E 018°21'0 0.0
2017-Jun-13 19:30N 59°24' E 018°21'0 0.0
2017-Jun-13 19:00N 59°24' E 018°21'0 0.0
2017-Jun-13 18:30N 59°24' E 018°21'0 0.0
2017-Jun-13 18:00N 59°24' E 018°21'0 0.0
2017-Jun-13 17:30N 59°24' E 018°21'0 0.0
2017-Jun-13 17:00N 59°24' E 018°21'0 0.0
2017-Jun-13 16:30N 59°24' E 018°21'1 1.6
2017-Jun-13 16:00N 59°25' E 018°22'1 2.2
2017-Jun-13 15:29N 59°24' E 018°23'1 1.7
2017-Jun-13 15:00N 59°24' E 018°21'0 0.0
2017-Jun-13 14:00N 59°24' E 018°21'1 1.2
2017-Jun-13 13:29N 59°24' E 018°22'1 2.6
2017-Jun-13 12:59N 59°23' E 018°25'2 3.9
2017-Jun-13 12:31N 59°22' E 018°26'3 5.2
2017-Jun-13 11:59N 59°24' E 018°23'1 1.6
2017-Jun-13 11:30N 59°24' E 018°21'1 1.4
2017-Jun-13 11:00N 59°25' E 018°22'1 1.4
2017-Jun-13 10:30N 59°24' E 018°21'1 2.9
2017-Jun-13 10:00N 59°23' E 018°24'1 2.7
2017-Jun-13 09:29N 59°24' E 018°21'0 0.0
2017-Jun-13 09:00N 59°24' E 018°21'0 0.0
2017-Jun-13 08:30N 59°24' E 018°21'0 0.0
2017-Jun-13 08:00N 59°24' E 018°21'1 2.7
2017-Jun-13 07:30N 59°23' E 018°24'2 3.9
2017-Jun-13 06:57N 59°22' E 018°26'3 7.3
2017-Jun-13 06:30N 59°24' E 018°22'1 1.3
2017-Jun-13 05:59N 59°24' E 018°23'1 1.8
2017-Jun-13 05:30N 59°24' E 018°21'  

Dump ship's entire track history